sensor_id;sensor_type;location;lat;lon;timestamp;pressure;altitude;pressure_sealevel;temperature;humidity
50867;BME280;36839;51.946;21.002;2022-10-16T00:01:24;100226.56;;;12.81;100.00
50867;BME280;36839;51.946;21.002;2022-10-16T00:03:51;100226.56;;;12.81;100.00
50867;BME280;36839;51.946;21.002;2022-10-16T00:06:21;100219.06;;;12.79;100.00
50867;BME280;36839;51.946;21.002;2022-10-16T00:08:49;100219.06;;;12.79;100.00
50867;BME280;36839;51.946;21.002;2022-10-16T00:11:23;100214.91;;;12.79;100.00
50867;BME280;36839;51.946;21.002;2022-10-16T00:13:51;100225.73;;;12.78;100.00
50867;BME280;36839;51.946;21.002;2022-10-16T00:16:19;100233.77;;;12.82;100.00
50867;BME280;36839;51.946;21.002;2022-10-16T00:18:49;100224.90;;;12.77;100.00
50867;BME280;36839;51.946;21.002;2022-10-16T00:21:19;100224.08;;;12.77;100.00
50867;BME280;36839;51.946;21.002;2022-10-16T00:23:56;100224.08;;;12.77;100.00
50867;BME280;36839;51.946;21.002;2022-10-16T00:26:29;100225.21;;;12.73;100.00
50867;BME280;36839;51.946;21.002;2022-10-16T00:28:59;100225.21;;;12.73;100.00
50867;BME280;36839;51.946;21.002;2022-10-16T00:31:28;100224.67;;;12.71;100.00
50867;BME280;36839;51.946;21.002;2022-10-16T00:33:58;100227.42;;;12.74;100.00
50867;BME280;36839;51.946;21.002;2022-10-16T00:36:25;100224.92;;;12.75;100.00
50867;BME280;36839;51.946;21.002;2022-10-16T00:38:54;100224.92;;;12.75;100.00
50867;BME280;36839;51.946;21.002;2022-10-16T00:41:22;100234.05;;;12.80;100.00
50867;BME280;36839;51.946;21.002;2022-10-16T00:43:57;100242.93;;;12.80;100.00
50867;BME280;36839;51.946;21.002;2022-10-16T00:46:26;100242.93;;;12.80;100.00
50867;BME280;36839;51.946;21.002;2022-10-16T00:49:14;100239.05;;;12.76;100.00
50867;BME280;36839;51.946;21.002;2022-10-16T00:51:52;100239.05;;;12.76;100.00
50867;BME280;36839;51.946;21.002;2022-10-16T00:54:24;100245.70;;;12.75;100.00
50867;BME280;36839;51.946;21.002;2022-10-16T00:56:55;100253.48;;;12.73;100.00
50867;BME280;36839;51.946;21.002;2022-10-16T00:59:27;100252.66;;;12.72;100.00
50867;BME280;36839;51.946;21.002;2022-10-16T01:01:55;100241.31;;;12.66;100.00
50867;BME280;36839;51.946;21.002;2022-10-16T01:04:24;100249.91;;;12.70;100.00
50867;BME280;36839;51.946;21.002;2022-10-16T01:07:06;100252.66;;;12.67;100.00
50867;BME280;36839;51.946;21.002;2022-10-16T01:09:43;100252.66;;;12.67;100.00
50867;BME280;36839;51.946;21.002;2022-10-16T01:12:26;100254.36;;;12.63;100.00
50867;BME280;36839;51.946;21.002;2022-10-16T01:15:06;100254.36;;;12.63;100.00
50867;BME280;36839;51.946;21.002;2022-10-16T01:17:32;100251.86;;;12.64;100.00
50867;BME280;36839;51.946;21.002;2022-10-16T01:22:49;100245.75;;;12.65;100.00
50867;BME280;36839;51.946;21.002;2022-10-16T01:25:30;100247.97;;;12.65;100.00
50867;BME280;36839;51.946;21.002;2022-10-16T01:27:54;100246.00;;;12.68;100.00
50867;BME280;36839;51.946;21.002;2022-10-16T01:30:23;100245.75;;;12.65;100.00
50867;BME280;36839;51.946;21.002;2022-10-16T01:35:36;100252.67;;;12.70;100.00
50867;BME280;36839;51.946;21.002;2022-10-16T01:38:19;100252.67;;;12.70;100.00
50867;BME280;36839;51.946;21.002;2022-10-16T01:40:46;100268.75;;;12.70;100.00
50867;BME280;36839;51.946;21.002;2022-10-16T01:43:15;100275.12;;;12.71;100.00
50867;BME280;36839;51.946;21.002;2022-10-16T01:45:44;100270.69;;;12.70;100.00
50867;BME280;36839;51.946;21.002;2022-10-16T01:48:18;100270.69;;;12.70;100.00
50867;BME280;36839;51.946;21.002;2022-10-16T01:50:44;100265.41;;;12.68;100.00
50867;BME280;36839;51.946;21.002;2022-10-16T01:53:14;100267.06;;;12.69;100.00
50867;BME280;36839;51.946;21.002;2022-10-16T01:55:45;100267.06;;;12.69;100.00
50867;BME280;36839;51.946;21.002;2022-10-16T01:58:14;100258.74;;;12.69;100.00
50867;BME280;36839;51.946;21.002;2022-10-16T02:00:44;100255.45;;;12.70;100.00
50867;BME280;36839;51.946;21.002;2022-10-16T02:03:17;100255.45;;;12.70;100.00
50867;BME280;36839;51.946;21.002;2022-10-16T02:05:55;100252.12;;;12.70;100.00
50867;BME280;36839;51.946;21.002;2022-10-16T02:08:24;100253.50;;;12.70;100.00
50867;BME280;36839;51.946;21.002;2022-10-16T02:10:57;100253.50;;;12.70;100.00
50867;BME280;36839;51.946;21.002;2022-10-16T02:13:28;100249.91;;;12.70;100.00
50867;BME280;36839;51.946;21.002;2022-10-16T02:15:54;100245.18;;;12.68;100.00
50867;BME280;36839;51.946;21.002;2022-10-16T02:18:23;100245.18;;;12.68;100.00
50867;BME280;36839;51.946;21.002;2022-10-16T02:21:00;100246.58;;;12.65;100.00
50867;BME280;36839;51.946;21.002;2022-10-16T02:23:40;100250.20;;;12.63;100.00
50867;BME280;36839;51.946;21.002;2022-10-16T02:26:07;100256.02;;;12.64;100.00
50867;BME280;36839;51.946;21.002;2022-10-16T02:28:48;100255.72;;;12.66;100.00
50867;BME280;36839;51.946;21.002;2022-10-16T02:31:12;100258.24;;;12.62;100.00
50867;BME280;36839;51.946;21.002;2022-10-16T02:33:45;100248.55;;;12.62;100.00
50867;BME280;36839;51.946;21.002;2022-10-16T02:36:13;100251.03;;;12.64;100.00
50867;BME280;36839;51.946;21.002;2022-10-16T02:38:43;100258.77;;;12.67;100.00
50867;BME280;36839;51.946;21.002;2022-10-16T02:41:11;100258.77;;;12.67;100.00
50867;BME280;36839;51.946;21.002;2022-10-16T02:43:38;100256.03;;;12.62;100.00
50867;BME280;36839;51.946;21.002;2022-10-16T02:46:09;100270.98;;;12.63;100.00
50867;BME280;36839;51.946;21.002;2022-10-16T02:48:36;100270.98;;;12.63;100.00
50867;BME280;36839;51.946;21.002;2022-10-16T02:51:07;100277.92;;;12.61;100.00
50867;BME280;36839;51.946;21.002;2022-10-16T02:53:35;100285.68;;;12.61;100.00
50867;BME280;36839;51.946;21.002;2022-10-16T02:56:07;100285.68;;;12.61;100.00
50867;BME280;36839;51.946;21.002;2022-10-16T02:58:35;100279.85;;;12.63;100.00
50867;BME280;36839;51.946;21.002;2022-10-16T03:01:03;100279.85;;;12.63;100.00
50867;BME280;36839;51.946;21.002;2022-10-16T03:03:31;100281.78;;;12.59;100.00
50867;BME280;36839;51.946;21.002;2022-10-16T03:05:58;100284.28;;;12.64;100.00
50867;BME280;36839;51.946;21.002;2022-10-16T03:08:29;100281.22;;;12.60;100.00
50867;BME280;36839;51.946;21.002;2022-10-16T03:10:56;100281.22;;;12.60;100.00
50867;BME280;36839;51.946;21.002;2022-10-16T03:13:23;100288.70;;;12.65;100.00
50867;BME280;36839;51.946;21.002;2022-10-16T03:15:52;100289.28;;;12.62;100.00
50867;BME280;36839;51.946;21.002;2022-10-16T03:18:22;100293.70;;;12.63;100.00
50867;BME280;36839;51.946;21.002;2022-10-16T03:20:50;100293.70;;;12.63;100.00
50867;BME280;36839;51.946;21.002;2022-10-16T03:23:17;100297.02;;;12.59;100.00
50867;BME280;36839;51.946;21.002;2022-10-16T03:25:47;100289.55;;;12.57;100.00
50867;BME280;36839;51.946;21.002;2022-10-16T03:28:13;100292.33;;;12.57;100.00
50867;BME280;36839;51.946;21.002;2022-10-16T03:30:43;100306.17;;;12.57;100.00
50867;BME280;36839;51.946;21.002;2022-10-16T03:33:11;100306.17;;;12.57;100.00
50867;BME280;36839;51.946;21.002;2022-10-16T03:35:40;100299.55;;;12.48;100.00
50867;BME280;36839;51.946;21.002;2022-10-16T03:38:10;100305.08;;;12.56;100.00
50867;BME280;36839;51.946;21.002;2022-10-16T03:40:38;100305.08;;;12.56;100.00
50867;BME280;36839;51.946;21.002;2022-10-16T03:43:09;100312.86;;;12.51;100.00
50867;BME280;36839;51.946;21.002;2022-10-16T03:45:37;100310.91;;;12.49;100.00
50867;BME280;36839;51.946;21.002;2022-10-16T03:48:09;100315.90;;;12.47;100.00
50867;BME280;36839;51.946;21.002;2022-10-16T03:50:37;100315.90;;;12.47;100.00
50867;BME280;36839;51.946;21.002;2022-10-16T03:53:03;100312.59;;;12.38;100.00
50867;BME280;36839;51.946;21.002;2022-10-16T03:55:34;100312.59;;;12.38;100.00
50867;BME280;36839;51.946;21.002;2022-10-16T03:58:01;100312.08;;;12.25;100.00
50867;BME280;36839;51.946;21.002;2022-10-16T04:00:34;100311.27;;;12.15;100.00
50867;BME280;36839;51.946;21.002;2022-10-16T04:03:04;100316.53;;;12.06;100.00
50867;BME280;36839;51.946;21.002;2022-10-16T04:05:32;100318.73;;;11.99;100.00
50867;BME280;36839;51.946;21.002;2022-10-16T04:07:58;100318.73;;;11.99;100.00
50867;BME280;36839;51.946;21.002;2022-10-16T04:10:26;100312.66;;;11.87;100.00
50867;BME280;36839;51.946;21.002;2022-10-16T04:12:56;100320.11;;;11.84;100.00
50867;BME280;36839;51.946;21.002;2022-10-16T04:15:25;100328.37;;;11.73;100.00
50867;BME280;36839;51.946;21.002;2022-10-16T04:17:52;100326.73;;;11.67;100.00
50867;BME280;36839;51.946;21.002;2022-10-16T04:20:20;100326.73;;;11.67;100.00
50867;BME280;36839;51.946;21.002;2022-10-16T04:22:48;100321.45;;;11.58;100.00
50867;BME280;36839;51.946;21.002;2022-10-16T04:25:15;100321.45;;;11.58;100.00
50867;BME280;36839;51.946;21.002;2022-10-16T04:27:42;100319.50;;;11.51;100.00
50867;BME280;36839;51.946;21.002;2022-10-16T04:30:09;100326.67;;;11.44;100.00
50867;BME280;36839;51.946;21.002;2022-10-16T04:32:36;100330.00;;;11.39;100.00
50867;BME280;36839;51.946;21.002;2022-10-16T04:35:04;100330.00;;;11.39;100.00
50867;BME280;36839;51.946;21.002;2022-10-16T04:37:31;100329.70;;;11.30;100.00
50867;BME280;36839;51.946;21.002;2022-10-16T04:39:59;100345.16;;;11.21;100.00
50867;BME280;36839;51.946;21.002;2022-10-16T04:42:29;100343.74;;;11.13;100.00
50867;BME280;36839;51.946;21.002;2022-10-16T04:44:59;100335.13;;;11.02;100.00
50867;BME280;36839;51.946;21.002;2022-10-16T04:47:28;100337.03;;;10.94;100.00
50867;BME280;36839;51.946;21.002;2022-10-16T04:49:58;100340.59;;;10.90;100.00
50867;BME280;36839;51.946;21.002;2022-10-16T04:52:29;100344.45;;;10.83;100.00
50867;BME280;36839;51.946;21.002;2022-10-16T04:54:59;100343.58;;;10.78;100.00
50867;BME280;36839;51.946;21.002;2022-10-16T04:57:29;100350.75;;;10.74;100.00
50867;BME280;36839;51.946;21.002;2022-10-16T05:00:01;100353.52;;;10.71;100.00
50867;BME280;36839;51.946;21.002;2022-10-16T05:02:33;100352.37;;;10.70;100.00
50867;BME280;36839;51.946;21.002;2022-10-16T05:05:02;100352.37;;;10.70;100.00
50867;BME280;36839;51.946;21.002;2022-10-16T05:07:30;100354.85;;;10.66;100.00
50867;BME280;36839;51.946;21.002;2022-10-16T05:09:56;100354.85;;;10.66;100.00
50867;BME280;36839;51.946;21.002;2022-10-16T05:12:22;100362.81;;;10.60;100.00
50867;BME280;36839;51.946;21.002;2022-10-16T05:14:50;100363.64;;;10.58;100.00
50867;BME280;36839;51.946;21.002;2022-10-16T05:17:16;100362.26;;;10.58;100.00
50867;BME280;36839;51.946;21.002;2022-10-16T05:19:43;100361.70;;;10.56;100.00
50867;BME280;36839;51.946;21.002;2022-10-16T05:22:12;100361.97;;;10.54;100.00
50867;BME280;36839;51.946;21.002;2022-10-16T05:24:42;100364.17;;;10.52;100.00
50867;BME280;36839;51.946;21.002;2022-10-16T05:27:08;100364.17;;;10.52;100.00
50867;BME280;36839;51.946;21.002;2022-10-16T05:29:37;100374.39;;;10.52;100.00
50867;BME280;36839;51.946;21.002;2022-10-16T05:32:08;100376.05;;;10.53;100.00
50867;BME280;36839;51.946;21.002;2022-10-16T05:34:34;100374.69;;;10.58;100.00
50867;BME280;36839;51.946;21.002;2022-10-16T05:37:00;100373.35;;;10.63;100.00
50867;BME280;36839;51.946;21.002;2022-10-16T05:39:29;100370.09;;;10.71;100.00
50867;BME280;36839;51.946;21.002;2022-10-16T05:41:59;100361.81;;;10.79;100.00
50867;BME280;36839;51.946;21.002;2022-10-16T05:44:27;100364.08;;;10.90;100.00
50867;BME280;36839;51.946;21.002;2022-10-16T05:46:59;100374.10;;;11.01;100.00
50867;BME280;36839;51.946;21.002;2022-10-16T05:49:27;100373.59;;;11.09;100.00
50867;BME280;36839;51.946;21.002;2022-10-16T05:51:55;100373.32;;;11.15;100.00
50867;BME280;36839;51.946;21.002;2022-10-16T05:54:22;100378.33;;;11.19;100.00
50867;BME280;36839;51.946;21.002;2022-10-16T05:56:51;100378.33;;;11.24;100.00
50867;BME280;36839;51.946;21.002;2022-10-16T05:59:17;100373.39;;;11.28;100.00
50867;BME280;36839;51.946;21.002;2022-10-16T06:01:43;100376.98;;;11.34;100.00
50867;BME280;36839;51.946;21.002;2022-10-16T06:04:11;100376.98;;;11.34;100.00
50867;BME280;36839;51.946;21.002;2022-10-16T06:06:38;100386.97;;;11.37;100.00
50867;BME280;36839;51.946;21.002;2022-10-16T06:09:09;100394.73;;;11.53;100.00
50867;BME280;36839;51.946;21.002;2022-10-16T06:11:37;100395.06;;;11.67;100.00
50867;BME280;36839;51.946;21.002;2022-10-16T06:14:04;100395.06;;;11.67;100.00
50867;BME280;36839;51.946;21.002;2022-10-16T06:16:36;100398.17;;;11.88;100.00
50867;BME280;36839;51.946;21.002;2022-10-16T06:19:04;100405.38;;;11.99;100.00
50867;BME280;36839;51.946;21.002;2022-10-16T06:21:42;100402.06;;;12.10;100.00
50867;BME280;36839;51.946;21.002;2022-10-16T06:24:13;100401.79;;;12.19;100.00
50867;BME280;36839;51.946;21.002;2022-10-16T06:26:42;100406.52;;;12.24;100.00
50867;BME280;36839;51.946;21.002;2022-10-16T06:29:08;100418.69;;;12.28;100.00
50867;BME280;36839;51.946;21.002;2022-10-16T06:31:35;100418.69;;;12.28;100.00
50867;BME280;36839;51.946;21.002;2022-10-16T06:34:03;100413.98;;;12.36;100.00
50867;BME280;36839;51.946;21.002;2022-10-16T06:36:34;100414.53;;;12.46;100.00
50867;BME280;36839;51.946;21.002;2022-10-16T06:39:03;100416.75;;;12.51;100.00
50867;BME280;36839;51.946;21.002;2022-10-16T06:41:33;100416.75;;;12.51;100.00
50867;BME280;36839;51.946;21.002;2022-10-16T06:44:06;100425.03;;;12.59;100.00
50867;BME280;36839;51.946;21.002;2022-10-16T06:46:38;100427.79;;;12.69;100.00
50867;BME280;36839;51.946;21.002;2022-10-16T06:49:04;100431.67;;;12.76;100.00
50867;BME280;36839;51.946;21.002;2022-10-16T06:51:31;100435.82;;;12.83;100.00
50867;BME280;36839;51.946;21.002;2022-10-16T06:53:59;100433.58;;;12.93;100.00
50867;BME280;36839;51.946;21.002;2022-10-16T06:56:27;100433.58;;;12.93;100.00
50867;BME280;36839;51.946;21.002;2022-10-16T06:58:56;100437.41;;;13.07;100.00
50867;BME280;36839;51.946;21.002;2022-10-16T07:01:28;100440.45;;;13.13;100.00
50867;BME280;36839;51.946;21.002;2022-10-16T07:03:55;100451.55;;;13.19;100.00
50867;BME280;36839;51.946;21.002;2022-10-16T07:06:25;100451.55;;;13.19;100.00
50867;BME280;36839;51.946;21.002;2022-10-16T07:08:54;100461.54;;;13.22;100.00
50867;BME280;36839;51.946;21.002;2022-10-16T07:11:23;100455.99;;;13.22;100.00
50867;BME280;36839;51.946;21.002;2022-10-16T07:13:51;100460.13;;;13.32;100.00
50867;BME280;36839;51.946;21.002;2022-10-16T07:16:26;100454.30;;;13.31;100.00
50867;BME280;36839;51.946;21.002;2022-10-16T07:18:54;100456.22;;;13.38;100.00
50867;BME280;36839;51.946;21.002;2022-10-16T07:21:23;100464.52;;;13.43;100.00
50867;BME280;36839;51.946;21.002;2022-10-16T07:23:52;100464.52;;;13.43;100.00
50867;BME280;36839;51.946;21.002;2022-10-16T07:26:22;100457.28;;;13.45;100.00
50867;BME280;36839;51.946;21.002;2022-10-16T07:28:53;100443.95;;;13.52;100.00
50867;BME280;36839;51.946;21.002;2022-10-16T07:31:23;100456.13;;;13.59;100.00
50867;BME280;36839;51.946;21.002;2022-10-16T07:33:53;100456.13;;;13.59;100.00
50867;BME280;36839;51.946;21.002;2022-10-16T07:36:22;100451.70;;;13.58;100.00
50867;BME280;36839;51.946;21.002;2022-10-16T07:38:50;100449.73;;;13.61;100.00
50867;BME280;36839;51.946;21.002;2022-10-16T07:41:19;100449.73;;;13.61;100.00
50867;BME280;36839;51.946;21.002;2022-10-16T07:43:52;100466.28;;;13.81;100.00
50867;BME280;36839;51.946;21.002;2022-10-16T07:46:19;100468.72;;;13.95;100.00
50867;BME280;36839;51.946;21.002;2022-10-16T07:48:48;100468.72;;;13.95;100.00
50867;BME280;36839;51.946;21.002;2022-10-16T07:51:23;100475.75;;;14.24;100.00
50867;BME280;36839;51.946;21.002;2022-10-16T07:53:49;100476.73;;;14.39;100.00
50867;BME280;36839;51.946;21.002;2022-10-16T07:56:18;100473.09;;;14.51;100.00
50867;BME280;36839;51.946;21.002;2022-10-16T07:58:46;100469.89;;;14.65;100.00
50867;BME280;36839;51.946;21.002;2022-10-16T08:01:16;100469.89;;;14.65;100.00
50867;BME280;36839;51.946;21.002;2022-10-16T08:03:48;100474.23;;;14.76;99.83
50867;BME280;36839;51.946;21.002;2022-10-16T08:06:16;100464.97;;;14.89;99.19
50867;BME280;36839;51.946;21.002;2022-10-16T08:08:45;100459.45;;;15.10;98.66
50867;BME280;36839;51.946;21.002;2022-10-16T08:11:13;100466.89;;;15.17;97.55
50867;BME280;36839;51.946;21.002;2022-10-16T08:13:42;100466.89;;;15.17;97.55
50867;BME280;36839;51.946;21.002;2022-10-16T08:16:13;100477.61;;;15.29;97.64
50867;BME280;36839;51.946;21.002;2022-10-16T08:18:43;100478.92;;;15.34;96.46
50867;BME280;36839;51.946;21.002;2022-10-16T08:21:17;100480.37;;;15.55;95.27
50867;BME280;36839;51.946;21.002;2022-10-16T08:23:44;100470.63;;;15.55;95.27
50867;BME280;36839;51.946;21.002;2022-10-16T08:26:11;100489.06;;;15.73;95.70
50867;BME280;36839;51.946;21.002;2022-10-16T08:28:40;100489.28;;;15.79;93.80
50867;BME280;36839;51.946;21.002;2022-10-16T08:31:12;100487.38;;;15.95;94.44
50867;BME280;36839;51.946;21.002;2022-10-16T08:33:44;100482.95;;;16.13;94.63
50867;BME280;36839;51.946;21.002;2022-10-16T08:36:13;100487.70;;;16.32;94.50
50867;BME280;36839;51.946;21.002;2022-10-16T08:38:41;100487.70;;;16.32;94.50
50867;BME280;36839;51.946;21.002;2022-10-16T08:49:37;100491.02;;;16.85;90.15
50867;BME280;36839;51.946;21.002;2022-10-16T08:52:06;100489.61;;;16.88;89.81
50867;BME280;36839;51.946;21.002;2022-10-16T08:54:35;100490.63;;;16.92;89.85
50867;BME280;36839;51.946;21.002;2022-10-16T08:57:22;100496.80;;;17.05;89.55
50867;BME280;36839;51.946;21.002;2022-10-16T08:59:51;100502.30;;;17.10;89.03
50867;BME280;36839;51.946;21.002;2022-10-16T09:02:40;100502.30;;;17.10;89.03
50867;BME280;36839;51.946;21.002;2022-10-16T09:08:22;100510.23;;;17.19;89.54
50867;BME280;36839;51.946;21.002;2022-10-16T09:18:43;100509.30;;;17.24;89.70
50867;BME280;36839;51.946;21.002;2022-10-16T09:21:21;100512.32;;;17.27;88.65
50867;BME280;36839;51.946;21.002;2022-10-16T09:23:53;100512.32;;;17.27;88.65
50867;BME280;36839;51.946;21.002;2022-10-16T09:26:24;100508.45;;;17.26;88.47
50867;BME280;36839;51.946;21.002;2022-10-16T09:28:53;100517.02;;;17.29;88.37
50867;BME280;36839;51.946;21.002;2022-10-16T09:31:22;100500.64;;;17.39;88.86
50867;BME280;36839;51.946;21.002;2022-10-16T09:33:54;100500.64;;;17.39;88.86
50867;BME280;36839;51.946;21.002;2022-10-16T09:36:25;100494.63;;;17.76;90.30
50867;BME280;36839;51.946;21.002;2022-10-16T09:39:07;100496.66;;;17.97;88.82
50867;BME280;36839;51.946;21.002;2022-10-16T09:41:33;100483.50;;;18.12;86.38
50867;BME280;36839;51.946;21.002;2022-10-16T09:44:02;100483.50;;;18.12;86.38
50867;BME280;36839;51.946;21.002;2022-10-16T09:46:35;100482.12;;;18.23;85.14
50867;BME280;36839;51.946;21.002;2022-10-16T09:49:04;100478.32;;;18.30;84.72
50867;BME280;36839;51.946;21.002;2022-10-16T09:51:37;100481.48;;;18.37;84.02
50867;BME280;36839;51.946;21.002;2022-10-16T09:56:40;100493.78;;;18.50;83.81
50867;BME280;36839;51.946;21.002;2022-10-16T09:59:11;100493.78;;;18.50;83.81
50867;BME280;36839;51.946;21.002;2022-10-16T10:01:44;100492.70;;;18.60;83.25
50867;BME280;36839;51.946;21.002;2022-10-16T10:04:11;100493.67;;;18.66;82.54
50867;BME280;36839;51.946;21.002;2022-10-16T10:06:52;100495.67;;;18.77;82.44
50867;BME280;36839;51.946;21.002;2022-10-16T10:11:58;100497.12;;;18.97;82.18
50867;BME280;36839;51.946;21.002;2022-10-16T10:17:26;100492.84;;;18.99;82.81
50867;BME280;36839;51.946;21.002;2022-10-16T10:19:53;100491.05;;;19.03;81.08
50867;BME280;36839;51.946;21.002;2022-10-16T10:22:44;100496.65;;;19.15;81.85
50867;BME280;36839;51.946;21.002;2022-10-16T10:33:50;100488.22;;;19.46;78.13
50867;BME280;36839;51.946;21.002;2022-10-16T10:36:27;100490.86;;;19.51;77.14
50867;BME280;36839;51.946;21.002;2022-10-16T10:38:54;100490.86;;;19.51;77.14
50867;BME280;36839;51.946;21.002;2022-10-16T10:41:37;100491.64;;;19.54;77.49
50867;BME280;36839;51.946;21.002;2022-10-16T10:44:16;100485.41;;;19.57;77.42
50867;BME280;36839;51.946;21.002;2022-10-16T10:47:01;100485.41;;;19.57;77.42
50867;BME280;36839;51.946;21.002;2022-10-16T10:51:54;100490.93;;;19.59;78.45
50867;BME280;36839;51.946;21.002;2022-10-16T10:57:12;100494.31;;;19.59;78.22
50867;BME280;36839;51.946;21.002;2022-10-16T10:59:48;100494.31;;;19.59;78.22
50867;BME280;36839;51.946;21.002;2022-10-16T11:07:41;100489.20;;;19.61;78.38
50867;BME280;36839;51.946;21.002;2022-10-16T11:10:15;100494.67;;;19.66;78.90
50867;BME280;36839;51.946;21.002;2022-10-16T11:13:00;100494.67;;;19.66;78.90
50867;BME280;36839;51.946;21.002;2022-10-16T11:15:35;100485.85;;;19.70;77.23
50867;BME280;36839;51.946;21.002;2022-10-16T11:18:18;100472.66;;;19.71;76.29
50867;BME280;36839;51.946;21.002;2022-10-16T11:20:59;100483.33;;;19.71;75.98
50867;BME280;36839;51.946;21.002;2022-10-16T11:23:31;100487.78;;;19.72;75.83
50867;BME280;36839;51.946;21.002;2022-10-16T11:26:02;100487.78;;;19.72;75.83
50867;BME280;36839;51.946;21.002;2022-10-16T11:28:44;100491.16;;;19.72;75.00
50867;BME280;36839;51.946;21.002;2022-10-16T11:31:36;100498.00;;;19.77;76.47
50867;BME280;36839;51.946;21.002;2022-10-16T11:37:03;100499.31;;;19.79;76.88
50867;BME280;36839;51.946;21.002;2022-10-16T11:39:31;100499.31;;;19.79;76.88
50867;BME280;36839;51.946;21.002;2022-10-16T11:50:11;100494.34;;;19.96;76.28
50867;BME280;36839;51.946;21.002;2022-10-16T11:55:17;100494.04;;;20.15;76.80
50867;BME280;36839;51.946;21.002;2022-10-16T11:57:54;100492.25;;;20.19;75.59
50867;BME280;36839;51.946;21.002;2022-10-16T12:00:26;100492.25;;;20.19;75.59
50867;BME280;36839;51.946;21.002;2022-10-16T12:08:19;100473.01;;;20.15;74.69
50867;BME280;36839;51.946;21.002;2022-10-16T12:10:50;100474.32;;;20.17;74.74
50867;BME280;36839;51.946;21.002;2022-10-16T12:13:28;100475.23;;;20.15;73.93
50867;BME280;36839;51.946;21.002;2022-10-16T12:18:42;100475.73;;;20.00;75.58
50867;BME280;36839;51.946;21.002;2022-10-16T12:21:16;100475.73;;;20.00;75.58
50867;BME280;36839;51.946;21.002;2022-10-16T12:23:56;100480.55;;;19.88;74.80
50867;BME280;36839;51.946;21.002;2022-10-16T12:26:33;100488.55;;;19.84;76.51
50867;BME280;36839;51.946;21.002;2022-10-16T12:29:23;100488.55;;;19.84;76.51
50867;BME280;36839;51.946;21.002;2022-10-16T12:31:35;100488.11;;;19.79;77.21
50867;BME280;36839;51.946;21.002;2022-10-16T12:34:01;100485.63;;;19.78;76.05
50867;BME280;36839;51.946;21.002;2022-10-16T12:36:34;100485.63;;;19.78;76.05
50867;BME280;36839;51.946;21.002;2022-10-16T12:39:03;100491.16;;;19.80;77.95
50867;BME280;36839;51.946;21.002;2022-10-16T12:41:32;100488.70;;;19.87;77.09
50867;BME280;36839;51.946;21.002;2022-10-16T12:44:03;100484.77;;;19.97;77.68
50867;BME280;36839;51.946;21.002;2022-10-16T12:46:34;100489.41;;;20.02;77.03
50867;BME280;36839;51.946;21.002;2022-10-16T12:51:43;100496.76;;;20.17;74.98
50867;BME280;36839;51.946;21.002;2022-10-16T12:59:48;100491.66;;;20.37;76.78
50867;BME280;36839;51.946;21.002;2022-10-16T13:05:30;100500.94;;;20.46;75.52
50867;BME280;36839;51.946;21.002;2022-10-16T13:10:40;100496.15;;;20.55;74.70
50867;BME280;36839;51.946;21.002;2022-10-16T13:13:13;100501.18;;;20.56;75.77
50867;BME280;36839;51.946;21.002;2022-10-16T13:18:36;100490.92;;;20.34;75.42
50867;BME280;36839;51.946;21.002;2022-10-16T13:21:12;100490.92;;;20.34;75.42
50867;BME280;36839;51.946;21.002;2022-10-16T13:29:00;100501.41;;;20.31;77.12
50867;BME280;36839;51.946;21.002;2022-10-16T13:31:30;100504.50;;;20.49;76.22
50867;BME280;36839;51.946;21.002;2022-10-16T13:34:04;100513.17;;;20.59;75.09
50867;BME280;36839;51.946;21.002;2022-10-16T13:36:43;100513.17;;;20.59;75.09
50867;BME280;36839;51.946;21.002;2022-10-16T13:41:41;100528.22;;;20.34;76.55
50867;BME280;36839;51.946;21.002;2022-10-16T13:44:17;100536.84;;;20.18;75.73
50867;BME280;36839;51.946;21.002;2022-10-16T13:46:43;100536.84;;;20.18;75.73
50867;BME280;36839;51.946;21.002;2022-10-16T13:49:19;100532.66;;;19.89;77.63
50867;BME280;36839;51.946;21.002;2022-10-16T13:51:59;100533.72;;;19.82;78.51
50867;BME280;36839;51.946;21.002;2022-10-16T13:54:28;100533.72;;;19.82;78.51
50867;BME280;36839;51.946;21.002;2022-10-16T13:57:05;100535.47;;;19.69;80.05
50867;BME280;36839;51.946;21.002;2022-10-16T13:59:37;100531.39;;;19.45;80.26
50867;BME280;36839;51.946;21.002;2022-10-16T14:02:26;100531.09;;;19.35;82.78
50867;BME280;36839;51.946;21.002;2022-10-16T14:04:40;100535.58;;;19.25;83.35
50867;BME280;36839;51.946;21.002;2022-10-16T14:07:14;100527.95;;;19.17;83.34
50867;BME280;36839;51.946;21.002;2022-10-16T14:09:47;100521.06;;;19.11;83.85
50867;BME280;36839;51.946;21.002;2022-10-16T14:12:14;100522.22;;;19.10;84.28
50867;BME280;36839;51.946;21.002;2022-10-16T14:14:46;100518.99;;;19.06;84.83
50867;BME280;36839;51.946;21.002;2022-10-16T14:17:19;100521.27;;;19.04;84.77
50867;BME280;36839;51.946;21.002;2022-10-16T14:19:48;100520.02;;;18.99;85.27
50867;BME280;36839;51.946;21.002;2022-10-16T14:22:26;100522.42;;;18.92;85.73
50867;BME280;36839;51.946;21.002;2022-10-16T14:24:51;100524.22;;;18.88;86.69
50867;BME280;36839;51.946;21.002;2022-10-16T14:30:21;100530.26;;;18.81;86.83
50867;BME280;36839;51.946;21.002;2022-10-16T14:38:03;100547.37;;;18.68;88.05